Terminal Aerodrome Forecast
Issued by NWS

Home | Current Version | Previous Version | Text Only | Print | Product List | Glossary On
Versions: 1 2 3 4 5 6 7 8 9 10 11 12 13 14 15 16 17 18 19 20 21 22 23 24 25
000
FTUS43 KDLH 232338
TAFHIB
TAF
KHIB 232338Z 2400/2424 17007KT P6SM SCT035 BKN250
     FM240800 18006KT 4SM BR OVC008
     FM241000 19005KT 2SM BR VCSH BKN006
     FM241400 24004KT P6SM BKN050
     FM241800 27010G20KT P6SM BKN060=

USA.gov is the U.S. government's official web portal to all federal, state and local government web resources and services.